Time;durP1;ratioP1;P1;durP2;ratioP2;P2;SDS_P1;SDS_P2;PMS_P1;PMS_P2;Temp;Humidity;BMP_temperature;BMP_pressure;BME280_temperature;BME280_humidity;BME280_pressure;Samples;Min_cycle;Max_cycle;Signal;HPM_P1;HPM_P2
2023/09/06 00:01:36;;;;;;;6.68;4.90;;;;;;;;;;5046200;28;20048;-61
2023/09/06 00:04:03;;;;;;;8.18;5.20;;;;;;;;;;5039943;28;20049;-62
2023/09/06 00:06:30;;;;;;;6.95;5.18;;;;;;;;;;5033878;28;20140;-61
2023/09/06 00:08:58;;;;;;;6.85;4.55;;;;;;;;;;5040485;28;20130;-61
2023/09/06 00:11:27;;;;;;;7.72;5.20;;;;;;;;;;5031551;28;20360;-61
2023/09/06 00:13:54;;;;;;;7.25;5.15;;;;;;;;;;5019636;28;20100;-61
2023/09/06 00:16:20;;;;;;;8.63;5.70;;;;;;;;;;5023713;28;20414;-59
2023/09/06 00:18:47;;;;;;;8.27;5.30;;;;;;;;;;5023653;28;20041;-61
2023/09/06 00:21:14;;;;;;;8.98;5.63;;;;;;;;;;5022862;28;20057;-61
2023/09/06 00:23:41;;;;;;;7.20;5.03;;;;;;;;;;5026085;28;20052;-61
2023/09/06 00:26:09;;;;;;;8.60;5.60;;;;;;;;;;5028270;28;20045;-61
2023/09/06 00:28:35;;;;;;;8.65;5.40;;;;;;;;;;5035933;28;20041;-61
2023/09/06 00:31:02;;;;;;;8.80;5.80;;;;;;;;;;5034813;28;20041;-61
2023/09/06 00:33:33;;;;;;;7.63;4.72;;;;;;;;;;5041186;28;20064;-60
2023/09/06 00:36:01;;;;;;;7.00;5.15;;;;;;;;;;5037014;28;20071;-61
2023/09/06 00:38:28;;;;;;;8.02;5.40;;;;;;;;;;5036067;28;20467;-61
2023/09/06 00:40:55;;;;;;;7.47;4.97;;;;;;;;;;5033174;28;20409;-61
2023/09/06 00:43:23;;;;;;;8.90;5.63;;;;;;;;;;5039925;28;20042;-61
2023/09/06 00:45:50;;;;;;;9.23;5.60;;;;;;;;;;5044528;28;20045;-61
2023/09/06 00:48:19;;;;;;;9.45;5.82;;;;;;;;;;5032316;28;20676;-62
2023/09/06 00:50:50;;;;;;;8.70;5.80;;;;;;;;;;5031990;28;20453;-61
2023/09/06 00:53:18;;;;;;;7.22;5.53;;;;;;;;;;5036473;28;20053;-61
2023/09/06 00:55:45;;;;;;;8.50;5.63;;;;;;;;;;5032818;28;20050;-62
2023/09/06 00:58:15;;;;;;;7.75;5.35;;;;;;;;;;5031579;28;20051;-61
2023/09/06 01:00:43;;;;;;;9.95;5.97;;;;;;;;;;5036309;28;20049;-60
2023/09/06 01:03:10;;;;;;;8.38;5.30;;;;;;;;;;5049364;28;20041;-60
2023/09/06 01:05:41;;;;;;;8.52;6.10;;;;;;;;;;5031828;28;20530;-61
2023/09/06 01:08:12;;;;;;;7.60;5.18;;;;;;;;;;5031936;28;20046;-61
2023/09/06 01:10:39;;;;;;;7.85;5.55;;;;;;;;;;5039921;28;20087;-60
2023/09/06 01:13:06;;;;;;;7.75;6.10;;;;;;;;;;5051451;28;20075;-60
2023/09/06 01:15:32;;;;;;;9.43;6.07;;;;;;;;;;5051102;28;20052;-61
2023/09/06 01:18:05;;;;;;;8.77;5.63;;;;;;;;;;5050825;28;20049;-61
2023/09/06 01:20:39;;;;;;;8.35;5.75;;;;;;;;;;5042313;28;20049;-61
2023/09/06 01:23:14;;;;;;;8.75;5.47;;;;;;;;;;5051415;28;20063;-61
2023/09/06 01:25:42;;;;;;;9.40;5.88;;;;;;;;;;5032914;28;20057;-61
2023/09/06 01:28:09;;;;;;;7.40;5.05;;;;;;;;;;5031337;28;20047;-61
2023/09/06 01:30:37;;;;;;;8.07;5.45;;;;;;;;;;5031003;28;20111;-61
2023/09/06 01:33:04;;;;;;;9.13;6.30;;;;;;;;;;5045215;28;20045;-61
2023/09/06 01:35:31;;;;;;;7.68;5.47;;;;;;;;;;5032093;28;20056;-61
2023/09/06 01:37:57;;;;;;;8.70;6.22;;;;;;;;;;5030849;28;20056;-60
2023/09/06 01:40:26;;;;;;;10.07;6.10;;;;;;;;;;5030108;28;20136;-61
2023/09/06 01:42:54;;;;;;;8.70;5.95;;;;;;;;;;5040000;28;20053;-61
2023/09/06 01:45:21;;;;;;;8.23;5.97;;;;;;;;;;5037259;28;20633;-61
2023/09/06 01:47:48;;;;;;;8.35;6.13;;;;;;;;;;5039315;28;20041;-60
2023/09/06 01:50:19;;;;;;;9.82;5.85;;;;;;;;;;5044295;28;20495;-60
2023/09/06 01:52:46;;;;;;;8.05;5.95;;;;;;;;;;5044824;28;20089;-60
2023/09/06 01:55:13;;;;;;;7.18;5.30;;;;;;;;;;5036506;28;20052;-60
2023/09/06 01:57:40;;;;;;;9.60;6.30;;;;;;;;;;5040894;28;20417;-60
2023/09/06 02:00:23;;;;;;;8.38;5.50;;;;;;;;;;5039252;28;20362;-61
2023/09/06 02:02:50;;;;;;;7.93;5.65;;;;;;;;;;5040966;28;20051;-61
2023/09/06 02:05:17;;;;;;;8.93;6.20;;;;;;;;;;5034553;28;20140;-60
2023/09/06 02:07:44;;;;;;;8.20;5.57;;;;;;;;;;5044842;28;20049;-60
2023/09/06 02:10:11;;;;;;;8.63;5.68;;;;;;;;;;5048467;28;20163;-60
2023/09/06 02:12:38;;;;;;;7.57;5.85;;;;;;;;;;5041520;28;20400;-60
2023/09/06 02:15:06;;;;;;;8.23;5.60;;;;;;;;;;5045707;28;20132;-60
2023/09/06 02:17:34;;;;;;;7.97;5.07;;;;;;;;;;5037560;28;20110;-61
2023/09/06 02:20:11;;;;;;;7.63;5.07;;;;;;;;;;5035886;28;20041;-61
2023/09/06 02:22:39;;;;;;;7.78;5.93;;;;;;;;;;5029200;28;20426;-60
2023/09/06 02:25:07;;;;;;;8.45;5.90;;;;;;;;;;5032381;28;20341;-61
2023/09/06 02:27:33;;;;;;;7.88;5.47;;;;;;;;;;5036867;28;20049;-61
2023/09/06 02:30:00;;;;;;;8.35;5.40;;;;;;;;;;5037128;28;20509;-61
2023/09/06 02:32:27;;;;;;;8.40;5.57;;;;;;;;;;5035654;28;20051;-61
2023/09/06 02:34:54;;;;;;;7.68;5.60;;;;;;;;;;5040909;28;20045;-61
2023/09/06 02:37:21;;;;;;;9.50;6.13;;;;;;;;;;5041109;28;20049;-61
2023/09/06 02:39:48;;;;;;;8.20;5.90;;;;;;;;;;5036873;28;20045;-61
2023/09/06 02:42:15;;;;;;;8.80;6.00;;;;;;;;;;5035670;28;20053;-61
2023/09/06 02:44:42;;;;;;;8.63;5.85;;;;;;;;;;5037093;28;20041;-60
2023/09/06 02:47:11;;;;;;;8.73;5.82;;;;;;;;;;5030077;28;20049;-61
2023/09/06 02:49:41;;;;;;;9.17;5.50;;;;;;;;;;5038628;28;20077;-61
2023/09/06 02:52:20;;;;;;;7.53;5.30;;;;;;;;;;5037871;28;20057;-61
2023/09/06 02:54:47;;;;;;;7.28;5.60;;;;;;;;;;5036252;28;20049;-60
2023/09/06 02:57:15;;;;;;;8.82;6.03;;;;;;;;;;5042941;28;20049;-60
2023/09/06 02:59:41;;;;;;;8.05;5.80;;;;;;;;;;5044785;28;20434;-61
2023/09/06 03:02:08;;;;;;;8.68;6.28;;;;;;;;;;5035565;28;20156;-61
2023/09/06 03:04:37;;;;;;;8.50;5.53;;;;;;;;;;5034053;28;20422;-61
2023/09/06 03:07:07;;;;;;;8.82;6.57;;;;;;;;;;5028904;28;20049;-61
2023/09/06 03:09:35;;;;;;;9.10;5.93;;;;;;;;;;5041297;28;20053;-60
2023/09/06 03:12:07;;;;;;;9.45;6.30;;;;;;;;;;5032108;28;20770;-61
2023/09/06 03:14:36;;;;;;;8.35;5.78;;;;;;;;;;5037556;28;20470;-60
2023/09/06 03:17:08;;;;;;;9.23;5.97;;;;;;;;;;5044167;28;20041;-61
2023/09/06 03:19:38;;;;;;;9.80;6.20;;;;;;;;;;5040526;28;20421;-60
2023/09/06 03:22:07;;;;;;;9.38;6.43;;;;;;;;;;5031878;28;20136;-60
2023/09/06 03:24:35;;;;;;;8.93;6.28;;;;;;;;;;5039633;28;20055;-61
2023/09/06 03:27:07;;;;;;;8.75;6.43;;;;;;;;;;5035431;28;20053;-61
2023/09/06 03:29:34;;;;;;;9.30;7.03;;;;;;;;;;5034499;28;20055;-61
2023/09/06 03:32:01;;;;;;;9.30;6.22;;;;;;;;;;5042892;28;20067;-61
2023/09/06 03:34:28;;;;;;;9.02;6.53;;;;;;;;;;5035180;28;20136;-61
2023/09/06 03:36:55;;;;;;;9.50;6.47;;;;;;;;;;5033113;28;20063;-61
2023/09/06 03:39:28;;;;;;;10.43;6.07;;;;;;;;;;5034581;28;20049;-60
2023/09/06 03:41:57;;;;;;;8.40;6.25;;;;;;;;;;5029559;28;20487;-60
2023/09/06 03:44:27;;;;;;;14.35;6.70;;;;;;;;;;5041088;28;20045;-61
2023/09/06 03:46:56;;;;;;;;;;;;;;;;;;5029474;28;20087;-61
2023/09/06 03:49:23;;;;;;;10.00;7.15;;;;;;;;;;5028689;28;20396;-61
2023/09/06 03:51:50;;;;;;;15.13;7.40;;;;;;;;;;5036503;28;20046;-61
2023/09/06 03:54:18;;;;;;;9.20;6.97;;;;;;;;;;5038932;28;20071;-61
2023/09/06 03:56:44;;;;;;;11.00;7.25;;;;;;;;;;5035926;28;20037;-61
2023/09/06 03:59:12;;;;;;;8.48;6.45;;;;;;;;;;5035411;28;20414;-61
2023/09/06 04:01:39;;;;;;;9.43;6.97;;;;;;;;;;5039721;28;20042;-60
2023/09/06 04:04:08;;;;;;;11.15;7.15;;;;;;;;;;5038858;28;20046;-61
2023/09/06 04:06:34;;;;;;;9.85;6.88;;;;;;;;;;5042017;28;20048;-60
2023/09/06 04:09:01;;;;;;;11.18;6.88;;;;;;;;;;5059145;22;20070;-58
2023/09/06 04:11:28;;;;;;;9.88;6.93;;;;;;;;;;5047306;28;20045;-58
2023/09/06 04:13:55;;;;;;;9.10;6.38;;;;;;;;;;5044254;28;20477;-59
2023/09/06 04:16:24;;;;;;;9.07;6.60;;;;;;;;;;5048313;28;20045;-60
2023/09/06 04:18:52;;;;;;;10.38;6.60;;;;;;;;;;5049827;28;20080;-59
2023/09/06 04:21:22;;;;;;;9.38;6.70;;;;;;;;;;5055987;28;20486;-60
2023/09/06 04:23:48;;;;;;;9.30;6.72;;;;;;;;;;5055319;28;20672;-60
2023/09/06 04:26:15;;;;;;;10.20;6.57;;;;;;;;;;5054851;28;20068;-59
2023/09/06 04:28:42;;;;;;;10.20;7.22;;;;;;;;;;5055013;28;20052;-60
2023/09/06 04:31:09;;;;;;;10.35;7.32;;;;;;;;;;5055368;28;20084;-58
2023/09/06 04:33:37;;;;;;;11.23;7.70;;;;;;;;;;5054611;28;20049;-58
2023/09/06 04:36:04;;;;;;;11.15;6.82;;;;;;;;;;5054771;28;20428;-60
2023/09/06 04:38:32;;;;;;;11.07;7.38;;;;;;;;;;5055354;28;20059;-59
2023/09/06 04:40:59;;;;;;;9.60;6.88;;;;;;;;;;5055447;28;20048;-58
2023/09/06 04:43:28;;;;;;;9.77;7.28;;;;;;;;;;5056168;28;20439;-59
2023/09/06 04:45:54;;;;;;;10.43;6.93;;;;;;;;;;5055530;28;20466;-59
2023/09/06 04:48:23;;;;;;;11.60;6.90;;;;;;;;;;5056284;28;20132;-57
2023/09/06 04:50:51;;;;;;;9.63;7.38;;;;;;;;;;5055639;28;20459;-60
2023/09/06 04:53:18;;;;;;;9.85;7.13;;;;;;;;;;5055889;28;20457;-58
2023/09/06 04:55:45;;;;;;;10.93;7.25;;;;;;;;;;5054481;28;20051;-58
2023/09/06 04:58:12;;;;;;;9.55;7.63;;;;;;;;;;5054774;28;20546;-60
2023/09/06 05:00:44;;;;;;;12.55;8.10;;;;;;;;;;5054413;28;20064;-58
2023/09/06 05:03:11;;;;;;;9.38;7.15;;;;;;;;;;5055435;28;20511;-59
2023/09/06 05:05:39;;;;;;;9.77;7.15;;;;;;;;;;5054867;28;20052;-60
2023/09/06 05:08:08;;;;;;;12.45;7.68;;;;;;;;;;5056962;28;20482;-60
2023/09/06 05:10:36;;;;;;;10.48;7.50;;;;;;;;;;5054822;28;20052;-60
2023/09/06 05:13:07;;;;;;;13.10;8.35;;;;;;;;;;5054567;28;20099;-60
2023/09/06 05:15:34;;;;;;;10.10;7.55;;;;;;;;;;5054833;28;20091;-59
2023/09/06 05:18:00;;;;;;;12.32;7.90;;;;;;;;;;5056171;28;20561;-59
2023/09/06 05:20:30;;;;;;;10.43;8.00;;;;;;;;;;5054651;28;20045;-59
2023/09/06 05:22:57;;;;;;;12.15;8.30;;;;;;;;;;5054804;28;20118;-58
2023/09/06 05:25:26;;;;;;;11.10;7.80;;;;;;;;;;5055025;28;20056;-59
2023/09/06 05:27:56;;;;;;;11.20;7.70;;;;;;;;;;5053214;28;20072;-60
2023/09/06 05:30:23;;;;;;;11.60;8.02;;;;;;;;;;5047149;28;20063;-58
2023/09/06 05:32:50;;;;;;;11.80;7.57;;;;;;;;;;5047281;28;20084;-60
2023/09/06 05:35:17;;;;;;;15.15;9.00;;;;;;;;;;5046120;28;20145;-60
2023/09/06 05:37:43;;;;;;;13.23;9.65;;;;;;;;;;5049697;28;20051;-59
2023/09/06 05:40:12;;;;;;;13.02;9.23;;;;;;;;;;5054396;28;20413;-59
2023/09/06 05:42:40;;;;;;;15.18;8.90;;;;;;;;;;5055202;28;20124;-59
2023/09/06 05:45:10;;;;;;;12.90;9.43;;;;;;;;;;5051400;28;20060;-59
2023/09/06 05:47:38;;;;;;;15.85;9.57;;;;;;;;;;5052204;28;20099;-61
2023/09/06 05:50:05;;;;;;;14.82;8.60;;;;;;;;;;5050935;28;20099;-60
2023/09/06 05:52:32;;;;;;;14.77;9.43;;;;;;;;;;5049004;28;20468;-60
2023/09/06 05:54:59;;;;;;;16.27;9.15;;;;;;;;;;5050813;28;20140;-58
2023/09/06 05:57:26;;;;;;;14.57;9.85;;;;;;;;;;5051295;28;20124;-58
2023/09/06 05:59:53;;;;;;;12.80;8.57;;;;;;;;;;5052358;28;20110;-60
2023/09/06 06:02:20;;;;;;;12.30;8.80;;;;;;;;;;5049025;28;20053;-61
2023/09/06 06:04:47;;;;;;;12.60;8.85;;;;;;;;;;5050383;28;20148;-60
2023/09/06 06:07:14;;;;;;;13.45;9.10;;;;;;;;;;5050691;28;20080;-57
2023/09/06 06:09:40;;;;;;;12.63;8.27;;;;;;;;;;5050419;28;20472;-59
2023/09/06 06:12:07;;;;;;;12.95;8.85;;;;;;;;;;5048733;28;20417;-60
2023/09/06 06:14:36;;;;;;;11.82;9.05;;;;;;;;;;5050600;28;20060;-57
2023/09/06 06:17:06;;;;;;;12.85;8.20;;;;;;;;;;5048296;28;20061;-58
2023/09/06 06:19:33;;;;;;;12.23;8.40;;;;;;;;;;5050197;28;20079;-58
2023/09/06 06:22:02;;;;;;;12.45;9.20;;;;;;;;;;5048376;28;20444;-60
2023/09/06 06:24:29;;;;;;;13.35;8.82;;;;;;;;;;5048263;28;20041;-60
2023/09/06 06:26:56;;;;;;;11.30;8.55;;;;;;;;;;5049190;28;20064;-61
2023/09/06 06:29:23;;;;;;;10.80;7.88;;;;;;;;;;5049766;28;20110;-60
2023/09/06 06:31:50;;;;;;;11.10;7.90;;;;;;;;;;5047053;28;20049;-59
2023/09/06 06:34:19;;;;;;;12.18;8.07;;;;;;;;;;5050195;28;20502;-57
2023/09/06 06:36:46;;;;;;;10.18;7.38;;;;;;;;;;5052285;28;20561;-60
2023/09/06 06:39:13;;;;;;;13.40;8.43;;;;;;;;;;5049841;28;20108;-59
2023/09/06 06:41:41;;;;;;;12.10;8.23;;;;;;;;;;5048645;28;20045;-60
2023/09/06 06:44:08;;;;;;;12.25;8.57;;;;;;;;;;5048764;28;20048;-60
2023/09/06 06:46:36;;;;;;;10.85;8.05;;;;;;;;;;5047597;28;20083;-59
2023/09/06 06:49:04;;;;;;;11.27;7.70;;;;;;;;;;5045349;28;20069;-59
2023/09/06 06:51:38;;;;;;;10.30;7.10;;;;;;;;;;5038500;28;20049;-58
2023/09/06 06:54:05;;;;;;;9.88;7.57;;;;;;;;;;5053034;28;20323;-60
2023/09/06 06:56:32;;;;;;;11.23;7.93;;;;;;;;;;5049664;28;20067;-60
2023/09/06 06:58:58;;;;;;;10.50;7.40;;;;;;;;;;5049773;28;20071;-60
2023/09/06 07:01:27;;;;;;;9.90;7.05;;;;;;;;;;5048907;28;20049;-59
2023/09/06 07:03:54;;;;;;;10.25;7.30;;;;;;;;;;5054106;28;20041;-60
2023/09/06 07:06:21;;;;;;;11.30;7.93;;;;;;;;;;5049438;28;20079;-60
2023/09/06 07:08:48;;;;;;;11.00;7.78;;;;;;;;;;5043673;28;20304;-60
2023/09/06 07:11:16;;;;;;;9.40;7.07;;;;;;;;;;5041966;28;20055;-58
2023/09/06 07:13:42;;;;;;;9.68;7.40;;;;;;;;;;5049369;28;20080;-59
2023/09/06 07:16:09;;;;;;;9.75;7.57;;;;;;;;;;5049687;28;20355;-60
2023/09/06 07:18:36;;;;;;;12.07;7.40;;;;;;;;;;5049350;28;20462;-60
2023/09/06 07:21:02;;;;;;;9.75;7.53;;;;;;;;;;5049327;28;20063;-60
2023/09/06 07:23:29;;;;;;;9.32;7.00;;;;;;;;;;5051272;28;20053;-58
2023/09/06 07:25:58;;;;;;;9.45;6.90;;;;;;;;;;5050054;28;20351;-59
2023/09/06 07:28:25;;;;;;;11.75;8.00;;;;;;;;;;5048137;28;20045;-60
2023/09/06 07:30:52;;;;;;;9.82;7.18;;;;;;;;;;5048499;28;20098;-64
2023/09/06 07:33:19;;;;;;;18.30;8.38;;;;;;;;;;5049502;28;20052;-59
2023/09/06 07:35:46;;;;;;;12.48;7.57;;;;;;;;;;5048794;28;20053;-60
2023/09/06 07:38:12;;;;;;;11.30;7.90;;;;;;;;;;5049212;28;20482;-60
2023/09/06 07:40:39;;;;;;;13.15;8.00;;;;;;;;;;5048737;28;20044;-60
2023/09/06 07:43:07;;;;;;;9.35;7.07;;;;;;;;;;5048999;28;20583;-59
2023/09/06 07:45:35;;;;;;;9.50;7.10;;;;;;;;;;5048417;28;20558;-60
2023/09/06 07:48:03;;;;;;;9.70;6.93;;;;;;;;;;5049715;28;20080;-67
2023/09/06 07:50:30;;;;;;;11.57;7.10;;;;;;;;;;5044922;28;20083;-64
2023/09/06 07:52:56;;;;;;;13.13;8.13;;;;;;;;;;5048372;28;20123;-62
2023/09/06 07:55:23;;;;;;;12.00;7.05;;;;;;;;;;5049243;28;20132;-57
2023/09/06 07:57:50;;;;;;;12.43;8.05;;;;;;;;;;5048519;28;20041;-62
2023/09/06 08:00:18;;;;;;;9.93;7.35;;;;;;;;;;5048464;28;20049;-61
2023/09/06 08:02:45;;;;;;;14.05;8.48;;;;;;;;;;5048477;28;20063;-61
2023/09/06 08:05:12;;;;;;;10.32;7.30;;;;;;;;;;5048884;28;20040;-62
2023/09/06 08:07:39;;;;;;;11.60;7.75;;;;;;;;;;5039132;28;20468;-63
2023/09/06 08:10:09;;;;;;;10.80;7.35;;;;;;;;;;5036928;28;20059;-63
2023/09/06 08:12:36;;;;;;;9.90;7.80;;;;;;;;;;5038969;28;20072;-64
2023/09/06 08:15:03;;;;;;;9.45;7.40;;;;;;;;;;5046811;28;20037;-63
2023/09/06 08:17:32;;;;;;;9.50;7.25;;;;;;;;;;5046213;28;20041;-64
2023/09/06 08:19:59;;;;;;;10.57;7.10;;;;;;;;;;5045250;28;20083;-61
2023/09/06 08:22:26;;;;;;;9.93;6.93;;;;;;;;;;5045739;28;20107;-64
2023/09/06 08:24:52;;;;;;;10.38;7.53;;;;;;;;;;5046716;28;20045;-63
2023/09/06 08:27:19;;;;;;;11.88;7.38;;;;;;;;;;5041084;28;20083;-63
2023/09/06 08:29:46;;;;;;;8.25;6.60;;;;;;;;;;5047739;28;20053;-63
2023/09/06 08:32:13;;;;;;;9.40;6.63;;;;;;;;;;5046070;28;20490;-63
2023/09/06 08:34:41;;;;;;;9.27;6.20;;;;;;;;;;5042468;28;20045;-64
2023/09/06 08:37:07;;;;;;;7.55;5.85;;;;;;;;;;5044972;28;20512;-67
2023/09/06 08:39:34;;;;;;;8.52;6.57;;;;;;;;;;5039612;28;20041;-62
2023/09/06 08:42:03;;;;;;;8.93;6.18;;;;;;;;;;5047543;28;20041;-62
2023/09/06 08:44:33;;;;;;;10.30;6.93;;;;;;;;;;5048914;28;20398;-63
2023/09/06 08:47:04;;;;;;;9.45;6.70;;;;;;;;;;5048972;28;20132;-63
2023/09/06 08:49:32;;;;;;;7.10;5.65;;;;;;;;;;5046182;28;20570;-63
2023/09/06 08:52:02;;;;;;;8.25;6.28;;;;;;;;;;5042427;28;20041;-63
2023/09/06 08:54:29;;;;;;;7.03;5.85;;;;;;;;;;5048525;28;20040;-65
2023/09/06 08:56:57;;;;;;;9.98;6.70;;;;;;;;;;5046800;28;20052;-65
2023/09/06 08:59:25;;;;;;;8.13;6.05;;;;;;;;;;5042747;28;20041;-61
2023/09/06 09:01:52;;;;;;;7.80;6.40;;;;;;;;;;5044504;28;20520;-62
2023/09/06 09:04:18;;;;;;;8.15;5.80;;;;;;;;;;5046098;28;20041;-62
2023/09/06 09:06:45;;;;;;;8.10;6.20;;;;;;;;;;5051444;28;20399;-61
2023/09/06 09:09:18;;;;;;;9.32;6.50;;;;;;;;;;5049081;28;20808;-60
2023/09/06 09:11:45;;;;;;;9.00;6.90;;;;;;;;;;5049238;28;20140;-62
2023/09/06 09:14:19;;;;;;;9.85;6.65;;;;;;;;;;5049452;28;20052;-60
2023/09/06 09:16:52;;;;;;;9.48;6.50;;;;;;;;;;5047186;28;20048;-61
2023/09/06 09:19:21;;;;;;;9.82;6.25;;;;;;;;;;5041297;28;20148;-61
2023/09/06 09:21:47;;;;;;;13.45;6.97;;;;;;;;;;5043839;28;20127;-63
2023/09/06 09:24:24;;;;;;;8.80;6.15;;;;;;;;;;5035078;28;20052;-63
2023/09/06 09:26:51;;;;;;;7.80;6.05;;;;;;;;;;5042345;28;20404;-62
2023/09/06 09:32:18;;;;;;;12.98;6.47;;;;;;;;;;5110446;27;20497;-61
2023/09/06 09:34:45;;;;;;;7.90;5.95;;;;;;;;;;5107533;28;20040;-62
2023/09/06 09:37:12;;;;;;;8.60;6.30;;;;;;;;;;5109238;28;20051;-64
2023/09/06 09:39:39;;;;;;;9.13;6.45;;;;;;;;;;5106983;28;20044;-62
2023/09/06 09:42:06;;;;;;;7.95;6.60;;;;;;;;;;5099458;28;20071;-61
2023/09/06 09:44:33;;;;;;;7.32;6.22;;;;;;;;;;5112629;28;20486;-62
2023/09/06 09:47:10;;;;;;;7.63;6.18;;;;;;;;;;5106039;28;20055;-61
2023/09/06 09:49:41;;;;;;;8.50;6.10;;;;;;;;;;5105398;28;20044;-63
2023/09/06 09:52:11;;;;;;;8.25;6.38;;;;;;;;;;5108823;28;20522;-61
2023/09/06 09:54:41;;;;;;;8.55;6.10;;;;;;;;;;5107091;28;20063;-61
2023/09/06 09:57:09;;;;;;;9.32;6.95;;;;;;;;;;5109524;28;20043;-63
2023/09/06 09:59:37;;;;;;;8.70;6.13;;;;;;;;;;5101083;28;20050;-60
2023/09/06 10:02:05;;;;;;;10.32;6.15;;;;;;;;;;5105110;28;20091;-62
2023/09/06 10:04:36;;;;;;;8.57;6.32;;;;;;;;;;5106112;28;20040;-61
2023/09/06 10:07:06;;;;;;;11.07;6.90;;;;;;;;;;5103658;28;20044;-61
2023/09/06 10:09:36;;;;;;;9.18;6.45;;;;;;;;;;5112327;22;20044;-62
2023/09/06 10:12:04;;;;;;;8.00;6.67;;;;;;;;;;5079996;28;20332;-62
2023/09/06 10:14:33;;;;;;;11.75;6.97;;;;;;;;;;5086004;28;20048;-62
2023/09/06 10:17:00;;;;;;;8.95;6.53;;;;;;;;;;5083998;28;20147;-62
2023/09/06 10:19:29;;;;;;;9.05;6.40;;;;;;;;;;5084150;28;20071;-62
2023/09/06 10:21:56;;;;;;;8.80;6.13;;;;;;;;;;5070198;28;20049;-62
2023/09/06 10:24:24;;;;;;;9.68;6.55;;;;;;;;;;5086240;28;20048;-62
2023/09/06 10:26:53;;;;;;;8.82;6.28;;;;;;;;;;5075933;28;20047;-63
2023/09/06 10:29:24;;;;;;;7.90;5.70;;;;;;;;;;5065402;28;20095;-63
2023/09/06 10:31:52;;;;;;;8.85;6.97;;;;;;;;;;5070087;28;20417;-63
2023/09/06 10:34:19;;;;;;;9.63;6.60;;;;;;;;;;5065928;28;20045;-63
2023/09/06 10:36:51;;;;;;;8.73;6.38;;;;;;;;;;5069737;28;20154;-62
2023/09/06 10:39:21;;;;;;;8.50;6.05;;;;;;;;;;5065390;28;20045;-63
2023/09/06 10:42:20;;;;;;;7.63;5.80;;;;;;;;;;5068896;28;20052;-63
2023/09/06 10:45:12;;;;;;;7.35;5.90;;;;;;;;;;5072900;28;20052;-63
2023/09/06 10:47:40;;;;;;;7.70;6.13;;;;;;;;;;5072103;28;20049;-63
2023/09/06 10:50:16;;;;;;;8.10;5.88;;;;;;;;;;5072724;28;20378;-63
2023/09/06 10:52:44;;;;;;;7.13;5.22;;;;;;;;;;5061597;28;20468;-63
2023/09/06 10:55:13;;;;;;;7.20;5.35;;;;;;;;;;5051805;28;20045;-63
2023/09/06 10:57:54;;;;;;;6.63;5.10;;;;;;;;;;5052343;28;20060;-63
2023/09/06 11:00:25;;;;;;;6.95;5.25;;;;;;;;;;5053876;28;20057;-65
2023/09/06 11:03:21;;;;;;;11.77;6.50;;;;;;;;;;5066090;28;20037;-66
2023/09/06 11:05:56;;;;;;;56.67;19.50;;;;;;;;;;5059580;28;20156;-63
2023/09/06 11:08:29;;;;;;;14.32;7.38;;;;;;;;;;5052154;28;20052;-63
2023/09/06 11:11:04;;;;;;;9.02;6.03;;;;;;;;;;5051204;28;20095;-63
2023/09/06 11:13:33;;;;;;;9.13;5.78;;;;;;;;;;5051996;28;20126;-62
2023/09/06 11:16:01;;;;;;;10.77;6.47;;;;;;;;;;5056511;28;20616;-63
2023/09/06 11:18:28;;;;;;;8.80;5.78;;;;;;;;;;5051496;28;20045;-63
2023/09/06 11:20:55;;;;;;;6.90;5.35;;;;;;;;;;5052528;28;20136;-62
2023/09/06 11:23:22;;;;;;;8.63;5.88;;;;;;;;;;5071535;28;20052;-62
2023/09/06 11:25:57;;;;;;;7.35;5.65;;;;;;;;;;5071890;28;20044;-63
2023/09/06 11:28:24;;;;;;;7.03;5.07;;;;;;;;;;5062618;28;20390;-63
2023/09/06 11:30:53;;;;;;;7.53;5.28;;;;;;;;;;5051497;28;20476;-62
2023/09/06 11:33:19;;;;;;;9.43;6.03;;;;;;;;;;5069342;28;20052;-63
2023/09/06 11:35:52;;;;;;;7.03;5.00;;;;;;;;;;5071384;28;20044;-63
2023/09/06 11:38:25;;;;;;;11.82;7.47;;;;;;;;;;5071139;28;20051;-62
2023/09/06 11:40:52;;;;;;;11.90;8.07;;;;;;;;;;5061552;28;20057;-63
2023/09/06 11:43:23;;;;;;;10.18;6.43;;;;;;;;;;5061361;28;20048;-62
2023/09/06 11:45:53;;;;;;;6.32;5.00;;;;;;;;;;5071390;28;20052;-63
2023/09/06 11:48:27;;;;;;;9.07;7.05;;;;;;;;;;5055083;28;20091;-63
2023/09/06 11:51:01;;;;;;;8.55;5.85;;;;;;;;;;5051470;28;20045;-63
2023/09/06 11:53:29;;;;;;;8.68;5.05;;;;;;;;;;5050763;28;20468;-63
2023/09/06 11:55:59;;;;;;;8.57;5.32;;;;;;;;;;5051215;28;20041;-63
2023/09/06 11:58:27;;;;;;;7.05;5.38;;;;;;;;;;5051420;28;20056;-63
2023/09/06 12:00:56;;;;;;;7.63;5.75;;;;;;;;;;5070758;28;20052;-63
2023/09/06 12:03:29;;;;;;;7.35;5.28;;;;;;;;;;5070920;28;20051;-63
2023/09/06 12:06:00;;;;;;;6.35;4.80;;;;;;;;;;5071153;28;20110;-63
2023/09/06 12:08:29;;;;;;;8.13;5.40;;;;;;;;;;5065148;28;20045;-63
2023/09/06 12:11:05;;;;;;;6.50;5.00;;;;;;;;;;5068338;28;20337;-63
2023/09/06 12:13:35;;;;;;;6.70;4.47;;;;;;;;;;5070811;28;20049;-63
2023/09/06 12:16:02;;;;;;;6.00;4.30;;;;;;;;;;5070461;28;20048;-63
2023/09/06 12:18:32;;;;;;;6.45;4.70;;;;;;;;;;5070771;28;20048;-63
2023/09/06 12:20:59;;;;;;;6.28;4.40;;;;;;;;;;5068430;28;20051;-63
2023/09/06 12:23:28;;;;;;;6.75;4.30;;;;;;;;;;5050814;28;20055;-63
2023/09/06 12:25:55;;;;;;;5.70;4.43;;;;;;;;;;5050404;28;20084;-63
2023/09/06 12:28:22;;;;;;;5.78;4.18;;;;;;;;;;5051222;28;20044;-63
2023/09/06 12:30:53;;;;;;;6.05;4.20;;;;;;;;;;5058611;28;20069;-63
2023/09/06 12:33:21;;;;;;;6.68;4.38;;;;;;;;;;5063235;28;20106;-63
2023/09/06 12:35:58;;;;;;;5.47;3.83;;;;;;;;;;5061785;28;20091;-63
2023/09/06 12:38:24;;;;;;;7.45;4.18;;;;;;;;;;5058682;28;20469;-63
2023/09/06 12:40:51;;;;;;;5.22;3.90;;;;;;;;;;5067639;28;20612;-63
2023/09/06 12:43:18;;;;;;;8.32;3.90;;;;;;;;;;5050517;28;20103;-61
2023/09/06 12:45:47;;;;;;;8.02;4.07;;;;;;;;;;5050402;28;20080;-63
2023/09/06 12:48:14;;;;;;;5.35;3.65;;;;;;;;;;5063741;28;20052;-62
2023/09/06 12:50:41;;;;;;;5.60;3.67;;;;;;;;;;5070036;28;20040;-63
2023/09/06 12:53:09;;;;;;;5.68;4.03;;;;;;;;;;5070262;28;20268;-64
2023/09/06 12:55:35;;;;;;;5.88;4.15;;;;;;;;;;5070103;28;20066;-63
2023/09/06 12:58:04;;;;;;;6.05;4.07;;;;;;;;;;5059246;28;20060;-63
2023/09/06 13:00:32;;;;;;;5.38;3.55;;;;;;;;;;5063588;28;20123;-63
2023/09/06 13:02:59;;;;;;;7.00;4.13;;;;;;;;;;5068094;28;20162;-62
2023/09/06 13:05:26;;;;;;;5.80;3.72;;;;;;;;;;5050130;28;20127;-62
2023/09/06 13:07:53;;;;;;;6.00;3.85;;;;;;;;;;5049899;28;20099;-62
2023/09/06 13:10:21;;;;;;;7.07;3.80;;;;;;;;;;5049946;28;20114;-62
2023/09/06 13:12:48;;;;;;;6.88;4.10;;;;;;;;;;5049904;28;20546;-62
2023/09/06 13:15:14;;;;;;;5.57;3.83;;;;;;;;;;5049834;28;20045;-62
2023/09/06 13:17:41;;;;;;;4.90;3.75;;;;;;;;;;5049954;28;20075;-62
2023/09/06 13:20:10;;;;;;;4.65;3.50;;;;;;;;;;5049664;28;20045;-62
2023/09/06 13:22:37;;;;;;;5.70;3.88;;;;;;;;;;5049637;28;20052;-62
2023/09/06 13:25:06;;;;;;;5.70;4.00;;;;;;;;;;5067787;28;20052;-62
2023/09/06 13:27:34;;;;;;;5.28;4.22;;;;;;;;;;5066938;28;20053;-62
2023/09/06 13:30:00;;;;;;;5.25;3.70;;;;;;;;;;5069624;28;20048;-62
2023/09/06 13:32:27;;;;;;;6.50;3.97;;;;;;;;;;5069521;28;20043;-62
2023/09/06 13:34:54;;;;;;;5.20;3.90;;;;;;;;;;5051187;28;20486;-62
2023/09/06 13:37:21;;;;;;;6.93;3.90;;;;;;;;;;5049582;28;20099;-62
2023/09/06 13:39:48;;;;;;;4.85;3.85;;;;;;;;;;5049586;28;20057;-62
2023/09/06 13:42:16;;;;;;;5.15;3.55;;;;;;;;;;5049430;28;20052;-61
2023/09/06 13:44:44;;;;;;;5.45;3.83;;;;;;;;;;5049700;28;20048;-62
2023/09/06 13:47:15;;;;;;;5.10;3.63;;;;;;;;;;5056725;28;20132;-62
2023/09/06 13:49:41;;;;;;;5.95;3.95;;;;;;;;;;5064083;28;20080;-62
2023/09/06 13:52:08;;;;;;;6.10;3.42;;;;;;;;;;5049160;28;20045;-62
2023/09/06 13:54:35;;;;;;;5.10;3.60;;;;;;;;;;5049236;28;20052;-62
2023/09/06 13:57:03;;;;;;;4.90;3.50;;;;;;;;;;5049645;28;20132;-62
2023/09/06 13:59:30;;;;;;;5.10;3.72;;;;;;;;;;5049029;28;20465;-62
2023/09/06 14:01:58;;;;;;;4.97;3.55;;;;;;;;;;5050394;28;20531;-62
2023/09/06 14:04:24;;;;;;;5.55;3.53;;;;;;;;;;5069056;28;20053;-62
2023/09/06 14:06:53;;;;;;;5.00;3.85;;;;;;;;;;5069395;28;20048;-61
2023/09/06 14:09:19;;;;;;;6.90;4.10;;;;;;;;;;5069072;28;20051;-62
2023/09/06 14:11:46;;;;;;;6.13;3.78;;;;;;;;;;5069486;28;20386;-61
2023/09/06 14:14:13;;;;;;;5.07;3.25;;;;;;;;;;5069449;28;20054;-60
2023/09/06 14:16:39;;;;;;;5.20;3.78;;;;;;;;;;5069167;28;20056;-63
2023/09/06 14:19:07;;;;;;;5.40;3.50;;;;;;;;;;5070371;28;20052;-63
2023/09/06 14:21:34;;;;;;;5.32;3.60;;;;;;;;;;5053054;28;20049;-62
2023/09/06 14:24:01;;;;;;;4.70;3.50;;;;;;;;;;5054399;28;20132;-62
2023/09/06 14:26:27;;;;;;;5.40;3.85;;;;;;;;;;5072722;28;20055;-62
2023/09/06 14:28:55;;;;;;;5.07;3.53;;;;;;;;;;5058756;28;20497;-63
2023/09/06 14:31:23;;;;;;;4.65;3.45;;;;;;;;;;5052902;28;20056;-62
2023/09/06 14:33:49;;;;;;;5.72;3.60;;;;;;;;;;5068461;28;20546;-62
2023/09/06 14:36:18;;;;;;;5.22;3.50;;;;;;;;;;5072875;28;20048;-62
2023/09/06 14:38:44;;;;;;;5.43;3.25;;;;;;;;;;5072882;28;20122;-62
2023/09/06 14:41:11;;;;;;;5.60;3.50;;;;;;;;;;5072274;28;20056;-63
2023/09/06 14:43:37;;;;;;;5.53;3.80;;;;;;;;;;5062998;28;20537;-62
2023/09/06 14:46:05;;;;;;;4.45;3.50;;;;;;;;;;5052653;28;20051;-63
2023/09/06 14:48:32;;;;;;;5.03;3.58;;;;;;;;;;5064658;28;20044;-63
2023/09/06 14:50:59;;;;;;;5.05;3.30;;;;;;;;;;5071147;28;20136;-62